sensor_id;sensor_type;location;lat;lon;timestamp;temperature;humidity
22578;DHT22;11455;52.390;13.028;2022-08-23T00:01:30;21.70;1.00
22578;DHT22;11455;52.390;13.028;2022-08-23T00:04:00;21.60;1.00
22578;DHT22;11455;52.390;13.028;2022-08-23T00:06:26;21.50;1.00
22578;DHT22;11455;52.390;13.028;2022-08-23T00:08:52;21.60;1.00
22578;DHT22;11455;52.390;13.028;2022-08-23T00:11:29;21.60;1.00
22578;DHT22;11455;52.390;13.028;2022-08-23T00:13:55;21.40;1.00
22578;DHT22;11455;52.390;13.028;2022-08-23T00:16:21;21.30;1.00
22578;DHT22;11455;52.390;13.028;2022-08-23T00:18:47;21.30;1.00
22578;DHT22;11455;52.390;13.028;2022-08-23T00:21:13;21.30;1.00
22578;DHT22;11455;52.390;13.028;2022-08-23T00:23:38;21.30;1.00
22578;DHT22;11455;52.390;13.028;2022-08-23T00:26:04;21.30;1.00
22578;DHT22;11455;52.390;13.028;2022-08-23T00:28:30;21.20;1.00
22578;DHT22;11455;52.390;13.028;2022-08-23T00:30:58;21.30;1.00
22578;DHT22;11455;52.390;13.028;2022-08-23T00:33:24;21.30;1.00
22578;DHT22;11455;52.390;13.028;2022-08-23T00:35:50;21.30;1.00
22578;DHT22;11455;52.390;13.028;2022-08-23T00:38:16;21.10;1.00
22578;DHT22;11455;52.390;13.028;2022-08-23T00:40:45;21.10;1.00
22578;DHT22;11455;52.390;13.028;2022-08-23T00:43:11;21.00;1.00
22578;DHT22;11455;52.390;13.028;2022-08-23T00:46:02;20.90;1.00
22578;DHT22;11455;52.390;13.028;2022-08-23T00:48:48;20.90;1.10
22578;DHT22;11455;52.390;13.028;2022-08-23T00:51:19;21.10;1.00
22578;DHT22;11455;52.390;13.028;2022-08-23T00:53:48;21.30;1.00
22578;DHT22;11455;52.390;13.028;2022-08-23T00:56:18;21.60;1.00
22578;DHT22;11455;52.390;13.028;2022-08-23T00:58:44;21.80;1.00
22578;DHT22;11455;52.390;13.028;2022-08-23T01:01:10;22.00;1.00
22578;DHT22;11455;52.390;13.028;2022-08-23T01:03:38;22.00;1.00
22578;DHT22;11455;52.390;13.028;2022-08-23T01:08:34;21.70;1.00
22578;DHT22;11455;52.390;13.028;2022-08-23T01:11:07;21.40;1.00
22578;DHT22;11455;52.390;13.028;2022-08-23T01:16:10;21.10;1.50
22578;DHT22;11455;52.390;13.028;2022-08-23T01:18:37;21.00;12.30
22578;DHT22;11455;52.390;13.028;2022-08-23T01:23:52;20.90;21.20
22578;DHT22;11455;52.390;13.028;2022-08-23T01:26:19;20.70;49.30
22578;DHT22;11455;52.390;13.028;2022-08-23T01:28:46;20.50;90.10
22578;DHT22;11455;52.390;13.028;2022-08-23T01:31:12;20.30;99.90
22578;DHT22;11455;52.390;13.028;2022-08-23T01:33:38;20.40;99.90
22578;DHT22;11455;52.390;13.028;2022-08-23T01:36:05;20.50;99.90
22578;DHT22;11455;52.390;13.028;2022-08-23T01:38:31;20.50;99.90
22578;DHT22;11455;52.390;13.028;2022-08-23T01:40:57;20.40;99.90
22578;DHT22;11455;52.390;13.028;2022-08-23T01:43:24;20.40;99.90
22578;DHT22;11455;52.390;13.028;2022-08-23T01:45:52;20.30;99.90
22578;DHT22;11455;52.390;13.028;2022-08-23T01:48:21;20.30;99.90
22578;DHT22;11455;52.390;13.028;2022-08-23T01:50:46;20.30;99.90
22578;DHT22;11455;52.390;13.028;2022-08-23T01:53:12;20.40;99.90
22578;DHT22;11455;52.390;13.028;2022-08-23T01:55:43;20.60;99.90
22578;DHT22;11455;52.390;13.028;2022-08-23T01:58:11;20.60;99.90
22578;DHT22;11455;52.390;13.028;2022-08-23T02:00:38;20.80;99.90
22578;DHT22;11455;52.390;13.028;2022-08-23T02:03:05;20.90;99.90
22578;DHT22;11455;52.390;13.028;2022-08-23T02:05:31;20.90;99.90
22578;DHT22;11455;52.390;13.028;2022-08-23T02:08:02;21.00;91.40
22578;DHT22;11455;52.390;13.028;2022-08-23T02:10:49;21.00;99.90
22578;DHT22;11455;52.390;13.028;2022-08-23T02:13:15;20.90;99.90
22578;DHT22;11455;52.390;13.028;2022-08-23T02:15:45;20.70;99.90
22578;DHT22;11455;52.390;13.028;2022-08-23T02:18:13;20.60;99.90
22578;DHT22;11455;52.390;13.028;2022-08-23T02:20:44;20.60;99.90
22578;DHT22;11455;52.390;13.028;2022-08-23T02:23:10;20.60;99.90
22578;DHT22;11455;52.390;13.028;2022-08-23T02:25:36;20.50;99.90
22578;DHT22;11455;52.390;13.028;2022-08-23T02:28:02;20.40;99.90
22578;DHT22;11455;52.390;13.028;2022-08-23T02:30:28;20.40;99.90
22578;DHT22;11455;52.390;13.028;2022-08-23T02:32:54;20.40;99.90
22578;DHT22;11455;52.390;13.028;2022-08-23T02:35:21;20.40;99.90
22578;DHT22;11455;52.390;13.028;2022-08-23T02:37:47;20.50;99.90
22578;DHT22;11455;52.390;13.028;2022-08-23T02:40:12;20.50;99.90
22578;DHT22;11455;52.390;13.028;2022-08-23T02:42:38;20.50;99.90
22578;DHT22;11455;52.390;13.028;2022-08-23T02:45:03;20.50;99.90
22578;DHT22;11455;52.390;13.028;2022-08-23T02:47:31;20.70;99.90
22578;DHT22;11455;52.390;13.028;2022-08-23T02:50:08;21.00;99.90
22578;DHT22;11455;52.390;13.028;2022-08-23T02:52:34;21.00;99.90
22578;DHT22;11455;52.390;13.028;2022-08-23T02:55:00;21.00;99.90
22578;DHT22;11455;52.390;13.028;2022-08-23T02:57:26;20.80;99.90
22578;DHT22;11455;52.390;13.028;2022-08-23T02:59:54;20.60;99.90
22578;DHT22;11455;52.390;13.028;2022-08-23T03:02:20;20.40;99.90
22578;DHT22;11455;52.390;13.028;2022-08-23T03:04:46;20.30;99.90
22578;DHT22;11455;52.390;13.028;2022-08-23T03:07:11;20.30;99.90
22578;DHT22;11455;52.390;13.028;2022-08-23T03:09:38;20.30;99.90
22578;DHT22;11455;52.390;13.028;2022-08-23T03:12:04;20.40;99.90
22578;DHT22;11455;52.390;13.028;2022-08-23T03:14:32;20.40;99.90
22578;DHT22;11455;52.390;13.028;2022-08-23T03:16:58;20.30;99.90
22578;DHT22;11455;52.390;13.028;2022-08-23T03:19:24;20.30;99.90
22578;DHT22;11455;52.390;13.028;2022-08-23T03:21:50;20.30;99.90
22578;DHT22;11455;52.390;13.028;2022-08-23T03:24:17;20.30;99.90
22578;DHT22;11455;52.390;13.028;2022-08-23T03:26:42;20.40;99.90
22578;DHT22;11455;52.390;13.028;2022-08-23T03:29:09;20.50;99.90
22578;DHT22;11455;52.390;13.028;2022-08-23T03:31:48;20.50;99.90
22578;DHT22;11455;52.390;13.028;2022-08-23T03:34:16;20.50;99.90
22578;DHT22;11455;52.390;13.028;2022-08-23T03:36:41;20.40;99.90
22578;DHT22;11455;52.390;13.028;2022-08-23T03:39:08;20.40;99.90
22578;DHT22;11455;52.390;13.028;2022-08-23T03:41:36;20.50;99.90
22578;DHT22;11455;52.390;13.028;2022-08-23T03:44:02;20.50;99.90
22578;DHT22;11455;52.390;13.028;2022-08-23T03:46:32;20.50;99.90
22578;DHT22;11455;52.390;13.028;2022-08-23T03:48:59;20.40;99.90
22578;DHT22;11455;52.390;13.028;2022-08-23T03:51:28;20.30;99.90
22578;DHT22;11455;52.390;13.028;2022-08-23T03:53:56;20.30;99.90
22578;DHT22;11455;52.390;13.028;2022-08-23T03:58:51;20.40;99.90
22578;DHT22;11455;52.390;13.028;2022-08-23T04:01:17;20.60;99.90
22578;DHT22;11455;52.390;13.028;2022-08-23T04:03:43;20.70;99.90
22578;DHT22;11455;52.390;13.028;2022-08-23T04:06:09;20.60;99.90
22578;DHT22;11455;52.390;13.028;2022-08-23T04:08:36;20.50;99.90
22578;DHT22;11455;52.390;13.028;2022-08-23T04:11:03;20.50;99.90
22578;DHT22;11455;52.390;13.028;2022-08-23T04:13:33;20.40;99.90
22578;DHT22;11455;52.390;13.028;2022-08-23T04:16:01;20.40;99.90
22578;DHT22;11455;52.390;13.028;2022-08-23T04:18:28;20.50;99.90
22578;DHT22;11455;52.390;13.028;2022-08-23T04:20:56;20.50;99.90
22578;DHT22;11455;52.390;13.028;2022-08-23T04:23:23;20.50;99.90
22578;DHT22;11455;52.390;13.028;2022-08-23T04:25:53;20.50;99.90
22578;DHT22;11455;52.390;13.028;2022-08-23T04:28:19;20.60;99.90
22578;DHT22;11455;52.390;13.028;2022-08-23T04:30:45;20.40;99.90
22578;DHT22;11455;52.390;13.028;2022-08-23T04:33:11;20.30;99.90
22578;DHT22;11455;52.390;13.028;2022-08-23T04:35:36;20.30;99.90
22578;DHT22;11455;52.390;13.028;2022-08-23T04:38:02;20.40;99.90
22578;DHT22;11455;52.390;13.028;2022-08-23T04:40:30;20.40;99.90
22578;DHT22;11455;52.390;13.028;2022-08-23T04:43:16;20.50;99.90
22578;DHT22;11455;52.390;13.028;2022-08-23T04:45:42;20.60;99.90
22578;DHT22;11455;52.390;13.028;2022-08-23T04:48:16;20.60;99.90
22578;DHT22;11455;52.390;13.028;2022-08-23T04:50:46;20.70;99.90
22578;DHT22;11455;52.390;13.028;2022-08-23T04:53:15;20.80;99.90
22578;DHT22;11455;52.390;13.028;2022-08-23T04:55:53;20.60;99.90
22578;DHT22;11455;52.390;13.028;2022-08-23T04:58:19;20.40;99.90
22578;DHT22;11455;52.390;13.028;2022-08-23T05:00:52;20.30;99.90
22578;DHT22;11455;52.390;13.028;2022-08-23T05:03:23;20.30;99.90
22578;DHT22;11455;52.390;13.028;2022-08-23T05:05:50;20.20;99.90
22578;DHT22;11455;52.390;13.028;2022-08-23T05:08:18;20.20;99.90
22578;DHT22;11455;52.390;13.028;2022-08-23T05:10:44;20.10;99.90
22578;DHT22;11455;52.390;13.028;2022-08-23T05:13:13;20.00;99.90
22578;DHT22;11455;52.390;13.028;2022-08-23T05:15:41;19.90;99.90
22578;DHT22;11455;52.390;13.028;2022-08-23T05:18:08;19.80;99.90
22578;DHT22;11455;52.390;13.028;2022-08-23T05:20:35;19.90;99.90
22578;DHT22;11455;52.390;13.028;2022-08-23T05:23:00;20.00;99.90
22578;DHT22;11455;52.390;13.028;2022-08-23T05:25:31;20.10;99.90
22578;DHT22;11455;52.390;13.028;2022-08-23T05:28:23;20.10;99.90
22578;DHT22;11455;52.390;13.028;2022-08-23T05:30:57;20.00;99.90
22578;DHT22;11455;52.390;13.028;2022-08-23T05:33:23;20.10;99.90
22578;DHT22;11455;52.390;13.028;2022-08-23T05:35:49;20.10;99.90
22578;DHT22;11455;52.390;13.028;2022-08-23T05:38:15;20.20;99.90
22578;DHT22;11455;52.390;13.028;2022-08-23T05:40:41;20.30;99.90
22578;DHT22;11455;52.390;13.028;2022-08-23T05:43:10;20.30;99.90
22578;DHT22;11455;52.390;13.028;2022-08-23T05:45:36;20.30;99.90
22578;DHT22;11455;52.390;13.028;2022-08-23T05:48:02;20.20;99.90
22578;DHT22;11455;52.390;13.028;2022-08-23T05:50:46;20.20;99.90
22578;DHT22;11455;52.390;13.028;2022-08-23T05:53:14;20.10;99.90
22578;DHT22;11455;52.390;13.028;2022-08-23T05:55:41;20.10;99.90
22578;DHT22;11455;52.390;13.028;2022-08-23T05:58:15;20.10;99.90
22578;DHT22;11455;52.390;13.028;2022-08-23T06:00:43;20.30;99.90
22578;DHT22;11455;52.390;13.028;2022-08-23T06:03:11;20.40;99.90
22578;DHT22;11455;52.390;13.028;2022-08-23T06:05:38;20.40;99.90
22578;DHT22;11455;52.390;13.028;2022-08-23T06:08:05;20.40;99.90
22578;DHT22;11455;52.390;13.028;2022-08-23T06:10:31;20.40;99.90
22578;DHT22;11455;52.390;13.028;2022-08-23T06:13:11;20.40;99.90
22578;DHT22;11455;52.390;13.028;2022-08-23T06:15:41;20.50;99.90
22578;DHT22;11455;52.390;13.028;2022-08-23T06:18:06;20.50;99.90
22578;DHT22;11455;52.390;13.028;2022-08-23T06:20:32;20.50;99.90
22578;DHT22;11455;52.390;13.028;2022-08-23T06:23:01;20.50;99.90
22578;DHT22;11455;52.390;13.028;2022-08-23T06:25:27;20.40;99.90
22578;DHT22;11455;52.390;13.028;2022-08-23T06:28:05;20.30;99.90
22578;DHT22;11455;52.390;13.028;2022-08-23T06:30:31;20.40;99.90
22578;DHT22;11455;52.390;13.028;2022-08-23T06:32:59;20.30;99.90
22578;DHT22;11455;52.390;13.028;2022-08-23T06:35:31;20.20;99.90
22578;DHT22;11455;52.390;13.028;2022-08-23T06:38:08;20.20;99.90
22578;DHT22;11455;52.390;13.028;2022-08-23T06:40:49;20.10;99.90
22578;DHT22;11455;52.390;13.028;2022-08-23T06:43:27;20.10;99.90
22578;DHT22;11455;52.390;13.028;2022-08-23T06:48:32;20.20;99.90
22578;DHT22;11455;52.390;13.028;2022-08-23T06:50:58;20.20;99.90
22578;DHT22;11455;52.390;13.028;2022-08-23T06:53:48;20.20;99.90
22578;DHT22;11455;52.390;13.028;2022-08-23T06:56:46;20.30;99.90
22578;DHT22;11455;52.390;13.028;2022-08-23T06:59:17;20.30;99.90
22578;DHT22;11455;52.390;13.028;2022-08-23T07:02:10;20.40;99.90
22578;DHT22;11455;52.390;13.028;2022-08-23T07:04:57;20.40;99.90
22578;DHT22;11455;52.390;13.028;2022-08-23T07:07:29;20.40;99.90
22578;DHT22;11455;52.390;13.028;2022-08-23T07:09:57;20.40;99.90
22578;DHT22;11455;52.390;13.028;2022-08-23T07:12:23;20.40;99.90
22578;DHT22;11455;52.390;13.028;2022-08-23T07:14:51;20.50;99.90
22578;DHT22;11455;52.390;13.028;2022-08-23T07:17:17;20.50;99.90
22578;DHT22;11455;52.390;13.028;2022-08-23T07:19:43;20.50;99.90
22578;DHT22;11455;52.390;13.028;2022-08-23T07:22:09;20.40;99.90
22578;DHT22;11455;52.390;13.028;2022-08-23T07:24:35;20.40;99.90
22578;DHT22;11455;52.390;13.028;2022-08-23T07:27:02;20.50;99.90
22578;DHT22;11455;52.390;13.028;2022-08-23T07:29:31;20.50;99.90
22578;DHT22;11455;52.390;13.028;2022-08-23T07:31:57;20.50;99.90
22578;DHT22;11455;52.390;13.028;2022-08-23T07:34:23;20.50;99.90
22578;DHT22;11455;52.390;13.028;2022-08-23T07:36:50;20.60;99.90
22578;DHT22;11455;52.390;13.028;2022-08-23T07:39:16;20.70;99.90
22578;DHT22;11455;52.390;13.028;2022-08-23T07:41:43;20.90;99.90
22578;DHT22;11455;52.390;13.028;2022-08-23T07:44:09;20.90;99.90
22578;DHT22;11455;52.390;13.028;2022-08-23T07:46:39;20.90;99.90
22578;DHT22;11455;52.390;13.028;2022-08-23T07:49:06;20.90;99.90
22578;DHT22;11455;52.390;13.028;2022-08-23T07:51:39;20.90;99.90
22578;DHT22;11455;52.390;13.028;2022-08-23T07:54:07;20.90;99.90
22578;DHT22;11455;52.390;13.028;2022-08-23T07:56:39;20.80;99.90
22578;DHT22;11455;52.390;13.028;2022-08-23T07:59:19;20.80;99.90
22578;DHT22;11455;52.390;13.028;2022-08-23T08:02:03;20.80;99.90
22578;DHT22;11455;52.390;13.028;2022-08-23T08:04:30;20.90;99.90
22578;DHT22;11455;52.390;13.028;2022-08-23T08:06:59;20.90;99.90
22578;DHT22;11455;52.390;13.028;2022-08-23T08:09:25;20.90;99.90
22578;DHT22;11455;52.390;13.028;2022-08-23T08:11:54;20.90;99.90
22578;DHT22;11455;52.390;13.028;2022-08-23T08:14:24;20.90;99.90
22578;DHT22;11455;52.390;13.028;2022-08-23T08:16:54;20.90;99.90
22578;DHT22;11455;52.390;13.028;2022-08-23T08:19:44;21.10;99.90
22578;DHT22;11455;52.390;13.028;2022-08-23T08:22:29;21.00;99.90
22578;DHT22;11455;52.390;13.028;2022-08-23T08:25:00;21.10;99.90
22578;DHT22;11455;52.390;13.028;2022-08-23T08:27:26;21.20;99.90
22578;DHT22;11455;52.390;13.028;2022-08-23T08:29:52;21.30;99.90
22578;DHT22;11455;52.390;13.028;2022-08-23T08:32:19;21.40;99.90
22578;DHT22;11455;52.390;13.028;2022-08-23T08:34:45;21.50;99.90
22578;DHT22;11455;52.390;13.028;2022-08-23T08:37:10;21.60;99.90
22578;DHT22;11455;52.390;13.028;2022-08-23T08:39:36;21.60;99.90
22578;DHT22;11455;52.390;13.028;2022-08-23T08:44:55;21.90;99.90
22578;DHT22;11455;52.390;13.028;2022-08-23T08:52:45;22.20;17.70
22578;DHT22;11455;52.390;13.028;2022-08-23T08:55:27;22.20;1.00
22578;DHT22;11455;52.390;13.028;2022-08-23T08:57:54;22.20;1.00
22578;DHT22;11455;52.390;13.028;2022-08-23T09:00:22;22.30;1.00
22578;DHT22;11455;52.390;13.028;2022-08-23T09:02:49;22.20;1.00
22578;DHT22;11455;52.390;13.028;2022-08-23T09:05:20;22.20;1.00
22578;DHT22;11455;52.390;13.028;2022-08-23T09:07:55;22.20;1.00
22578;DHT22;11455;52.390;13.028;2022-08-23T09:10:37;22.20;1.00
22578;DHT22;11455;52.390;13.028;2022-08-23T09:18:31;22.50;1.00
22578;DHT22;11455;52.390;13.028;2022-08-23T09:20:59;22.70;1.00
22578;DHT22;11455;52.390;13.028;2022-08-23T09:23:32;22.80;1.00
22578;DHT22;11455;52.390;13.028;2022-08-23T09:26:02;22.80;1.00
22578;DHT22;11455;52.390;13.028;2022-08-23T09:28:33;22.90;1.00
22578;DHT22;11455;52.390;13.028;2022-08-23T09:30:59;23.00;1.00
22578;DHT22;11455;52.390;13.028;2022-08-23T09:33:35;23.00;1.00
22578;DHT22;11455;52.390;13.028;2022-08-23T09:36:18;23.20;1.00
22578;DHT22;11455;52.390;13.028;2022-08-23T09:38:56;23.20;1.00
22578;DHT22;11455;52.390;13.028;2022-08-23T09:41:25;23.30;1.00
22578;DHT22;11455;52.390;13.028;2022-08-23T09:43:54;23.30;1.00
22578;DHT22;11455;52.390;13.028;2022-08-23T09:46:27;23.30;1.00
22578;DHT22;11455;52.390;13.028;2022-08-23T09:48:56;23.40;1.00
22578;DHT22;11455;52.390;13.028;2022-08-23T09:51:36;23.40;1.00
22578;DHT22;11455;52.390;13.028;2022-08-23T09:54:09;23.50;1.00
22578;DHT22;11455;52.390;13.028;2022-08-23T09:56:40;23.60;1.00
22578;DHT22;11455;52.390;13.028;2022-08-23T10:01:53;23.90;1.00
22578;DHT22;11455;52.390;13.028;2022-08-23T10:04:21;24.00;1.00
22578;DHT22;11455;52.390;13.028;2022-08-23T10:06:47;24.00;1.00
22578;DHT22;11455;52.390;13.028;2022-08-23T10:09:27;24.00;1.00
22578;DHT22;11455;52.390;13.028;2022-08-23T10:11:54;24.00;1.00
22578;DHT22;11455;52.390;13.028;2022-08-23T10:14:21;23.90;1.00
22578;DHT22;11455;52.390;13.028;2022-08-23T10:19:40;24.00;1.00
22578;DHT22;11455;52.390;13.028;2022-08-23T10:22:17;24.10;1.00
22578;DHT22;11455;52.390;13.028;2022-08-23T10:25:02;24.20;1.00
22578;DHT22;11455;52.390;13.028;2022-08-23T10:33:13;24.30;1.00
22578;DHT22;11455;52.390;13.028;2022-08-23T10:35:50;24.40;1.00
22578;DHT22;11455;52.390;13.028;2022-08-23T10:41:19;24.60;1.00
22578;DHT22;11455;52.390;13.028;2022-08-23T10:43:51;24.70;1.00
22578;DHT22;11455;52.390;13.028;2022-08-23T10:46:19;24.60;1.00
22578;DHT22;11455;52.390;13.028;2022-08-23T10:48:56;24.60;1.00
22578;DHT22;11455;52.390;13.028;2022-08-23T10:51:27;24.60;1.00
22578;DHT22;11455;52.390;13.028;2022-08-23T10:53:57;24.60;1.00
22578;DHT22;11455;52.390;13.028;2022-08-23T10:56:25;24.60;1.00
22578;DHT22;11455;52.390;13.028;2022-08-23T10:58:56;24.60;1.00
22578;DHT22;11455;52.390;13.028;2022-08-23T11:02:17;24.60;1.00
22578;DHT22;11455;52.390;13.028;2022-08-23T11:04:19;24.60;1.00
22578;DHT22;11455;52.390;13.028;2022-08-23T11:07:00;24.60;1.00
22578;DHT22;11455;52.390;13.028;2022-08-23T11:09:50;24.60;1.00
22578;DHT22;11455;52.390;13.028;2022-08-23T11:12:21;24.60;1.00
22578;DHT22;11455;52.390;13.028;2022-08-23T11:17:23;24.60;1.00
22578;DHT22;11455;52.390;13.028;2022-08-23T11:27:25;24.90;1.00
22578;DHT22;11455;52.390;13.028;2022-08-23T11:29:50;24.90;1.00
22578;DHT22;11455;52.390;13.028;2022-08-23T11:32:29;24.90;1.00
22578;DHT22;11455;52.390;13.028;2022-08-23T11:37:50;25.00;1.00
22578;DHT22;11455;52.390;13.028;2022-08-23T11:43:03;25.00;1.00
22578;DHT22;11455;52.390;13.028;2022-08-23T11:48:10;25.20;1.00
22578;DHT22;11455;52.390;13.028;2022-08-23T11:55:51;25.60;1.00
22578;DHT22;11455;52.390;13.028;2022-08-23T11:58:31;25.70;1.00
22578;DHT22;11455;52.390;13.028;2022-08-23T12:01:02;25.70;1.00
22578;DHT22;11455;52.390;13.028;2022-08-23T12:11:14;26.00;1.00
22578;DHT22;11455;52.390;13.028;2022-08-23T12:13:58;26.00;1.00
22578;DHT22;11455;52.390;13.028;2022-08-23T12:16:28;26.10;1.00
22578;DHT22;11455;52.390;13.028;2022-08-23T12:18:56;26.30;1.00
22578;DHT22;11455;52.390;13.028;2022-08-23T12:21:27;26.30;1.00
22578;DHT22;11455;52.390;13.028;2022-08-23T12:23:56;26.40;1.00
22578;DHT22;11455;52.390;13.028;2022-08-23T12:26:24;26.40;1.00
22578;DHT22;11455;52.390;13.028;2022-08-23T12:28:51;26.50;1.00
22578;DHT22;11455;52.390;13.028;2022-08-23T12:31:28;26.70;1.00
22578;DHT22;11455;52.390;13.028;2022-08-23T12:39:07;26.90;1.00
22578;DHT22;11455;52.390;13.028;2022-08-23T12:41:55;27.00;1.00
22578;DHT22;11455;52.390;13.028;2022-08-23T12:44:25;26.90;1.00
22578;DHT22;11455;52.390;13.028;2022-08-23T12:46:54;26.90;1.00
22578;DHT22;11455;52.390;13.028;2022-08-23T12:49:22;27.00;1.00
22578;DHT22;11455;52.390;13.028;2022-08-23T12:51:49;27.00;1.00
22578;DHT22;11455;52.390;13.028;2022-08-23T12:54:17;27.00;1.00
22578;DHT22;11455;52.390;13.028;2022-08-23T12:56:46;27.10;1.00
22578;DHT22;11455;52.390;13.028;2022-08-23T13:01:53;27.30;1.00
22578;DHT22;11455;52.390;13.028;2022-08-23T13:04:18;27.40;1.00
22578;DHT22;11455;52.390;13.028;2022-08-23T13:09:18;27.50;1.00
22578;DHT22;11455;52.390;13.028;2022-08-23T13:11:44;27.40;1.00
22578;DHT22;11455;52.390;13.028;2022-08-23T13:14:26;27.40;1.00
22578;DHT22;11455;52.390;13.028;2022-08-23T13:19:42;27.30;1.00
22578;DHT22;11455;52.390;13.028;2022-08-23T13:27:32;27.20;1.00
22578;DHT22;11455;52.390;13.028;2022-08-23T13:34:50;27.60;1.00
22578;DHT22;11455;52.390;13.028;2022-08-23T13:39:50;27.80;1.00
22578;DHT22;11455;52.390;13.028;2022-08-23T13:42:29;27.90;1.00
22578;DHT22;11455;52.390;13.028;2022-08-23T13:45:05;28.00;1.00
22578;DHT22;11455;52.390;13.028;2022-08-23T13:47:34;28.30;1.00
22578;DHT22;11455;52.390;13.028;2022-08-23T13:50:00;28.50;1.00
22578;DHT22;11455;52.390;13.028;2022-08-23T13:52:26;28.60;1.00
22578;DHT22;11455;52.390;13.028;2022-08-23T13:54:52;28.50;1.00
22578;DHT22;11455;52.390;13.028;2022-08-23T13:57:17;28.70;1.00
22578;DHT22;11455;52.390;13.028;2022-08-23T13:59:48;28.80;1.00
22578;DHT22;11455;52.390;13.028;2022-08-23T14:02:15;29.00;99.90
22578;DHT22;11455;52.390;13.028;2022-08-23T14:04:41;29.10;99.90
22578;DHT22;11455;52.390;13.028;2022-08-23T14:07:07;29.00;99.90
22578;DHT22;11455;52.390;13.028;2022-08-23T14:09:33;28.70;99.90
22578;DHT22;11455;52.390;13.028;2022-08-23T14:12:01;28.80;99.90
22578;DHT22;11455;52.390;13.028;2022-08-23T14:14:28;28.70;99.90
22578;DHT22;11455;52.390;13.028;2022-08-23T14:16:55;28.40;99.90
22578;DHT22;11455;52.390;13.028;2022-08-23T14:19:21;28.10;99.90
22578;DHT22;11455;52.390;13.028;2022-08-23T14:21:47;28.00;99.90
22578;DHT22;11455;52.390;13.028;2022-08-23T14:24:13;27.80;99.90
22578;DHT22;11455;52.390;13.028;2022-08-23T14:26:38;27.80;1.00
22578;DHT22;11455;52.390;13.028;2022-08-23T14:29:04;27.90;99.90
22578;DHT22;11455;52.390;13.028;2022-08-23T14:31:30;28.10;99.90
22578;DHT22;11455;52.390;13.028;2022-08-23T14:33:58;28.20;99.90
22578;DHT22;11455;52.390;13.028;2022-08-23T14:36:25;28.40;99.90
22578;DHT22;11455;52.390;13.028;2022-08-23T14:38:51;28.60;99.90
22578;DHT22;11455;52.390;13.028;2022-08-23T14:41:18;28.80;99.90
22578;DHT22;11455;52.390;13.028;2022-08-23T14:43:45;28.80;99.90
22578;DHT22;11455;52.390;13.028;2022-08-23T14:46:11;28.80;99.90
22578;DHT22;11455;52.390;13.028;2022-08-23T14:48:37;29.00;99.90
22578;DHT22;11455;52.390;13.028;2022-08-23T14:51:03;29.00;99.90
22578;DHT22;11455;52.390;13.028;2022-08-23T14:53:30;28.90;99.90
22578;DHT22;11455;52.390;13.028;2022-08-23T14:55:58;28.70;99.90
22578;DHT22;11455;52.390;13.028;2022-08-23T14:58:24;28.40;99.90
22578;DHT22;11455;52.390;13.028;2022-08-23T15:00:50;28.20;99.90
22578;DHT22;11455;52.390;13.028;2022-08-23T15:03:22;28.00;99.90
22578;DHT22;11455;52.390;13.028;2022-08-23T15:05:50;28.10;99.90
22578;DHT22;11455;52.390;13.028;2022-08-23T15:08:16;27.90;99.90
22578;DHT22;11455;52.390;13.028;2022-08-23T15:10:42;27.80;99.90
22578;DHT22;11455;52.390;13.028;2022-08-23T15:13:08;27.80;99.90
22578;DHT22;11455;52.390;13.028;2022-08-23T15:15:34;28.00;99.90
22578;DHT22;11455;52.390;13.028;2022-08-23T15:18:01;28.30;99.90
22578;DHT22;11455;52.390;13.028;2022-08-23T15:20:29;28.40;99.90
22578;DHT22;11455;52.390;13.028;2022-08-23T15:22:54;28.60;99.90
22578;DHT22;11455;52.390;13.028;2022-08-23T15:25:20;28.50;99.90
22578;DHT22;11455;52.390;13.028;2022-08-23T15:27:46;28.20;99.90
22578;DHT22;11455;52.390;13.028;2022-08-23T15:30:13;28.10;99.90
22578;DHT22;11455;52.390;13.028;2022-08-23T15:32:39;27.80;99.90
22578;DHT22;11455;52.390;13.028;2022-08-23T15:35:05;27.70;99.90
22578;DHT22;11455;52.390;13.028;2022-08-23T15:37:31;27.50;99.90
22578;DHT22;11455;52.390;13.028;2022-08-23T15:39:56;27.50;99.90
22578;DHT22;11455;52.390;13.028;2022-08-23T15:42:22;27.50;99.90
22578;DHT22;11455;52.390;13.028;2022-08-23T15:44:48;27.70;99.90
22578;DHT22;11455;52.390;13.028;2022-08-23T15:47:19;27.90;99.90
22578;DHT22;11455;52.390;13.028;2022-08-23T15:49:46;27.90;99.90
22578;DHT22;11455;52.390;13.028;2022-08-23T15:52:11;27.90;99.90
22578;DHT22;11455;52.390;13.028;2022-08-23T15:54:37;28.10;99.90
22578;DHT22;11455;52.390;13.028;2022-08-23T15:57:03;28.20;99.90
22578;DHT22;11455;52.390;13.028;2022-08-23T15:59:29;28.20;99.90
22578;DHT22;11455;52.390;13.028;2022-08-23T16:01:55;28.30;99.90
22578;DHT22;11455;52.390;13.028;2022-08-23T16:04:21;28.30;99.90
22578;DHT22;11455;52.390;13.028;2022-08-23T16:06:47;28.20;99.90
22578;DHT22;11455;52.390;13.028;2022-08-23T16:09:16;28.00;99.90
22578;DHT22;11455;52.390;13.028;2022-08-23T16:11:43;27.90;99.90
22578;DHT22;11455;52.390;13.028;2022-08-23T16:14:08;27.80;99.90
22578;DHT22;11455;52.390;13.028;2022-08-23T16:16:35;27.70;99.90
22578;DHT22;11455;52.390;13.028;2022-08-23T16:19:02;27.60;99.90
22578;DHT22;11455;52.390;13.028;2022-08-23T16:21:28;27.60;99.90
22578;DHT22;11455;52.390;13.028;2022-08-23T16:23:54;27.70;99.90
22578;DHT22;11455;52.390;13.028;2022-08-23T16:26:24;27.80;99.90
22578;DHT22;11455;52.390;13.028;2022-08-23T16:28:50;27.70;99.90
22578;DHT22;11455;52.390;13.028;2022-08-23T16:31:16;27.40;99.90
22578;DHT22;11455;52.390;13.028;2022-08-23T16:33:42;27.30;99.90
22578;DHT22;11455;52.390;13.028;2022-08-23T16:36:08;27.10;1.00
22578;DHT22;11455;52.390;13.028;2022-08-23T16:38:34;27.20;1.00
22578;DHT22;11455;52.390;13.028;2022-08-23T16:41:00;27.30;1.00
22578;DHT22;11455;52.390;13.028;2022-08-23T16:43:29;27.40;1.00
22578;DHT22;11455;52.390;13.028;2022-08-23T16:45:54;27.40;1.00
22578;DHT22;11455;52.390;13.028;2022-08-23T16:48:20;27.50;99.90
22578;DHT22;11455;52.390;13.028;2022-08-23T16:50:46;27.50;99.90
22578;DHT22;11455;52.390;13.028;2022-08-23T16:53:11;27.40;99.90
22578;DHT22;11455;52.390;13.028;2022-08-23T16:55:40;27.40;99.90
22578;DHT22;11455;52.390;13.028;2022-08-23T16:58:05;27.40;1.00
22578;DHT22;11455;52.390;13.028;2022-08-23T17:00:32;27.30;99.90
22578;DHT22;11455;52.390;13.028;2022-08-23T17:02:58;27.20;1.00
22578;DHT22;11455;52.390;13.028;2022-08-23T17:05:23;27.10;1.00
22578;DHT22;11455;52.390;13.028;2022-08-23T17:07:50;27.10;1.00
22578;DHT22;11455;52.390;13.028;2022-08-23T17:10:18;27.10;1.00